Terminal Aerodrome Forecast
Issued by NWS

Home | Current Version | Previous Version | Text Only | Print | Product List | Glossary On
Versions: 1 2 3 4 5 6 7 8 9 10 11 12 13 14 15 16 17 18 19 20 21
000
FTUS45 KBOU 311137
TAFAPA
TAF
KAPA 311137Z 3112/0112 16012KT P6SM SKC
     FM311400 15014G22KT P6SM FEW220
     FM311700 17016KT P6SM SCT220
     FM010200 19010KT P6SM FEW140 SCT220
     FM010900 20010KT P6SM SCT080 BKN180=

USA.gov is the U.S. government's official web portal to all federal, state and local government web resources and services.